createdAt,value
2022-11-16T00:00:22.712Z,69.35
2022-11-16T00:01:22.091Z,69.46
2022-11-16T00:02:22.613Z,69.42
2022-11-16T00:03:21.860Z,69.44
2022-11-16T00:04:22.366Z,69.58
2022-11-16T00:25:13.153Z,68.94
2022-11-16T00:26:14.789Z,69.07
2022-11-16T00:27:14.417Z,69.06
2022-11-16T00:35:47.476Z,69.52
2022-11-16T00:39:47.477Z,69.08
2022-11-16T00:44:42.644Z,69.11
2022-11-16T00:45:43.582Z,69.17
2022-11-16T00:53:17.074Z,69.21
2022-11-16T01:01:45.365Z,68.85
2022-11-16T01:02:46.358Z,69.11
2022-11-16T01:03:46.420Z,69.10
2022-11-16T01:10:06.014Z,69.02
2022-11-16T01:11:06.894Z,69.38
2022-11-16T01:12:07.155Z,69.51
2022-11-16T01:13:06.758Z,69.43
2022-11-16T01:14:06.934Z,69.48
2022-11-16T01:20:06.805Z,69.14
2022-11-16T01:21:06.112Z,69.11
2022-11-16T01:22:05.902Z,69.24
2022-11-16T01:23:05.938Z,69.42
2022-11-16T01:24:06.601Z,69.41
2022-11-16T01:54:06.338Z,68.85
2022-11-16T01:55:05.819Z,69.29
2022-11-16T02:55:38.342Z,69.50
2022-11-16T03:05:36.356Z,69.52
2022-11-16T03:06:37.608Z,69.65
2022-11-16T03:52:22.364Z,72.50
2022-11-16T03:53:23.353Z,72.76
2022-11-16T03:54:23.376Z,72.68
2022-11-16T04:10:01.620Z,73.04
2022-11-16T04:11:02.278Z,73.27
2022-11-16T04:25:16.737Z,73.56
2022-11-16T04:27:56.035Z,73.54
2022-11-16T04:33:30.708Z,73.83
2022-11-16T04:34:31.984Z,74.11
2022-11-16T04:35:31.661Z,74.10
2022-11-16T04:36:31.547Z,74.23
2022-11-16T04:37:32.851Z,74.31
2022-11-16T04:42:03.662Z,73.78
2022-11-16T04:43:04.620Z,74.01
2022-11-16T04:44:12.746Z,74.04
2022-11-16T04:49:54.508Z,73.88
2022-11-16T04:51:11.865Z,74.20
2022-11-16T04:55:41.591Z,73.94
2022-11-16T04:59:07.599Z,74.03
2022-11-16T05:00:08.314Z,74.50
2022-11-16T05:04:06.160Z,74.73
2022-11-16T05:08:47.576Z,76.07
2022-11-16T05:09:51.415Z,76.61
2022-11-16T05:19:58.809Z,78.20
2022-11-16T05:20:46.101Z,78.40
2022-11-16T05:24:30.143Z,78.08
2022-11-16T05:30:03.577Z,78.09
2022-11-16T05:43:32.235Z,79.79
2022-11-16T06:02:00.641Z,82.55
2022-11-16T06:25:10.724Z,83.86
2022-11-16T06:26:11.669Z,84.13
2022-11-16T06:27:11.664Z,84.21
2022-11-16T06:28:11.674Z,84.24
2022-11-16T06:29:11.635Z,84.27
2022-11-16T06:30:11.639Z,84.32
2022-11-16T06:31:11.601Z,84.30
2022-11-16T06:32:11.596Z,84.30
2022-11-16T06:33:11.607Z,84.37
2022-11-16T06:34:11.558Z,84.33
2022-11-16T06:35:11.558Z,84.28
2022-11-16T06:36:11.565Z,84.19
2022-11-16T06:37:11.538Z,84.16
2022-11-16T06:38:11.515Z,83.81
2022-11-16T06:39:11.522Z,83.66
2022-11-16T06:40:11.481Z,83.69
2022-11-16T06:41:11.491Z,83.30
2022-11-16T06:42:11.521Z,82.94
2022-11-16T06:43:11.475Z,82.99
2022-11-16T06:44:11.460Z,83.25
2022-11-16T06:45:11.449Z,83.56
2022-11-16T06:46:11.438Z,83.71
2022-11-16T06:47:11.617Z,83.84
2022-11-16T06:48:11.389Z,83.92
2022-11-16T06:49:11.369Z,83.93
2022-11-16T06:50:11.376Z,83.91
2022-11-16T06:51:11.358Z,83.88
2022-11-16T06:52:11.350Z,83.62
2022-11-16T06:53:11.329Z,83.62
2022-11-16T06:54:11.340Z,83.70
2022-11-16T06:55:11.303Z,83.72
2022-11-16T06:56:11.300Z,83.68
2022-11-16T06:57:11.276Z,83.43
2022-11-16T06:58:11.265Z,83.61
2022-11-16T06:59:11.266Z,83.58
2022-11-16T07:00:11.255Z,83.78
2022-11-16T07:01:11.232Z,83.77
2022-11-16T07:02:11.317Z,83.83
2022-11-16T07:03:11.191Z,83.88
2022-11-16T07:04:11.189Z,84.07
2022-11-16T07:05:11.165Z,83.91
2022-11-16T07:06:11.183Z,83.94
2022-11-16T07:07:11.216Z,83.97
2022-11-16T07:08:11.135Z,83.75
2022-11-16T07:09:11.123Z,83.97
2022-11-16T07:10:11.124Z,84.08
2022-11-16T07:11:11.087Z,84.13
2022-11-16T07:12:11.093Z,83.96
2022-11-16T07:13:11.071Z,83.88
2022-11-16T07:14:11.066Z,83.93
2022-11-16T07:15:11.040Z,83.98
2022-11-16T07:16:11.043Z,83.95
2022-11-16T07:17:11.014Z,84.03
2022-11-16T07:18:11.010Z,84.03
2022-11-16T07:19:10.983Z,84.18
2022-11-16T07:20:10.978Z,84.16
2022-11-16T07:21:10.975Z,84.21
2022-11-16T07:22:10.957Z,84.10
2022-11-16T07:23:14.109Z,84.12
2022-11-16T07:24:10.932Z,84.08
2022-11-16T07:25:10.907Z,84.05
2022-11-16T07:26:10.923Z,84.13
2022-11-16T07:27:10.879Z,84.15
2022-11-16T07:28:10.901Z,84.21
2022-11-16T07:29:10.864Z,84.13
2022-11-16T07:30:10.860Z,83.96
2022-11-16T07:31:10.852Z,84.00
2022-11-16T07:32:10.822Z,84.09
2022-11-16T07:33:10.825Z,84.13
2022-11-16T07:34:10.793Z,83.98
2022-11-16T07:35:10.776Z,83.87
2022-11-16T07:36:10.785Z,83.92
2022-11-16T07:37:10.791Z,84.07
2022-11-16T07:38:15.412Z,84.09
2022-11-16T07:39:10.729Z,84.09
2022-11-16T07:40:10.719Z,84.01
2022-11-16T07:41:10.704Z,84.19
2022-11-16T07:42:10.688Z,84.24
2022-11-16T07:43:10.681Z,84.29
2022-11-16T07:44:12.275Z,84.35
2022-11-16T07:45:10.660Z,84.23
2022-11-16T07:47:10.643Z,84.23
2022-11-16T07:48:10.615Z,84.28
2022-11-16T07:49:11.627Z,84.41
2022-11-16T07:50:10.588Z,84.31
2022-11-16T07:51:10.590Z,84.51
2022-11-16T07:52:10.566Z,84.66
2022-11-16T07:53:10.567Z,84.72
2022-11-16T07:54:10.549Z,84.74
2022-11-16T07:55:10.522Z,84.78
2022-11-16T07:56:10.508Z,84.85
2022-11-16T07:57:10.499Z,84.89
2022-11-16T07:58:10.498Z,84.85
2022-11-16T07:59:10.478Z,84.51
2022-11-16T08:00:10.484Z,84.57
2022-11-16T08:01:10.464Z,84.43
2022-11-16T08:02:10.507Z,84.57
2022-11-16T08:03:10.466Z,84.72
2022-11-16T08:04:10.451Z,84.52
2022-11-16T08:05:10.396Z,84.16
2022-11-16T08:06:10.393Z,83.94
2022-11-16T08:07:10.395Z,83.96
2022-11-16T08:08:10.369Z,84.05
2022-11-16T08:09:10.342Z,84.17
2022-11-16T08:10:10.446Z,84.27
2022-11-16T08:11:10.318Z,84.27
2022-11-16T08:12:10.328Z,84.25
2022-11-16T08:13:10.378Z,84.02
2022-11-16T08:14:10.286Z,84.00
2022-11-16T08:15:10.280Z,83.98
2022-11-16T08:16:10.264Z,84.02
2022-11-16T08:17:10.253Z,84.22
2022-11-16T08:18:10.244Z,84.31
2022-11-16T08:19:10.231Z,84.45
2022-11-16T08:20:10.216Z,84.60
2022-11-16T08:21:10.230Z,84.53
2022-11-16T08:22:10.201Z,84.71
2022-11-16T08:23:10.194Z,84.52
2022-11-16T08:24:10.168Z,84.66
2022-11-16T08:25:10.149Z,84.80
2022-11-16T08:26:10.151Z,84.74
2022-11-16T08:27:10.161Z,84.82
2022-11-16T08:28:10.111Z,84.82
2022-11-16T08:29:10.090Z,84.93
2022-11-16T08:30:10.105Z,84.86
2022-11-16T08:31:10.065Z,84.78
2022-11-16T08:32:10.067Z,84.66
2022-11-16T08:33:10.087Z,84.69
2022-11-16T08:34:10.030Z,84.77
2022-11-16T08:35:10.030Z,84.72
2022-11-16T08:36:14.040Z,84.49
2022-11-16T08:37:10.028Z,84.55
2022-11-16T08:38:09.992Z,84.60
2022-11-16T08:39:09.964Z,84.70
2022-11-16T08:40:10.027Z,84.62
2022-11-16T08:41:09.943Z,84.41
2022-11-16T08:42:09.945Z,84.59
2022-11-16T08:43:09.922Z,84.64
2022-11-16T08:44:09.918Z,84.51
2022-11-16T08:45:09.919Z,84.62
2022-11-16T08:46:09.880Z,84.61
2022-11-16T08:47:09.885Z,84.70
2022-11-16T08:48:09.877Z,84.64
2022-11-16T08:49:09.846Z,84.72
2022-11-16T08:50:09.831Z,84.61
2022-11-16T08:51:17.545Z,84.77
2022-11-16T08:52:09.830Z,84.83
2022-11-16T08:53:09.802Z,85.00
2022-11-16T08:54:09.780Z,85.06
2022-11-16T08:55:09.805Z,85.13
2022-11-16T08:56:09.764Z,85.20
2022-11-16T08:57:09.764Z,85.30
2022-11-16T08:58:09.734Z,85.14
2022-11-16T08:59:09.717Z,85.06
2022-11-16T09:00:09.720Z,85.05
2022-11-16T09:01:09.689Z,85.17
2022-11-16T09:02:09.763Z,85.39
2022-11-16T09:03:09.673Z,85.42
2022-11-16T09:04:09.662Z,85.27
2022-11-16T09:05:09.651Z,85.25
2022-11-16T09:06:09.636Z,85.44
2022-11-16T09:07:09.675Z,85.52
2022-11-16T09:08:09.628Z,85.55
2022-11-16T09:09:09.596Z,85.57
2022-11-16T09:10:09.625Z,85.65
2022-11-16T09:11:09.580Z,85.69
2022-11-16T09:12:09.564Z,85.52
2022-11-16T09:13:09.547Z,85.46
2022-11-16T09:14:09.551Z,85.40
2022-11-16T09:15:09.536Z,85.40
2022-11-16T09:16:09.567Z,85.46
2022-11-16T09:17:09.579Z,85.42
2022-11-16T09:18:09.513Z,85.51
2022-11-16T09:19:09.468Z,85.55
2022-11-16T09:20:09.478Z,85.55
2022-11-16T09:21:09.446Z,85.63
2022-11-16T09:22:09.442Z,85.59
2022-11-16T09:23:09.419Z,85.60
2022-11-16T09:24:09.409Z,85.56
2022-11-16T09:25:09.423Z,85.55
2022-11-16T09:26:09.391Z,85.57
2022-11-16T09:27:09.386Z,85.61
2022-11-16T09:28:09.384Z,85.58
2022-11-16T09:29:09.353Z,85.58
2022-11-16T09:30:09.334Z,85.55
2022-11-16T09:31:09.319Z,85.55
2022-11-16T09:32:09.342Z,85.51
2022-11-16T09:33:09.300Z,85.50
2022-11-16T09:34:09.317Z,85.49
2022-11-16T09:35:09.313Z,85.49
2022-11-16T09:36:09.261Z,85.51
2022-11-16T09:37:09.251Z,85.52
2022-11-16T09:38:09.246Z,85.52
2022-11-16T09:40:09.223Z,85.46
2022-11-16T09:41:09.209Z,85.43
2022-11-16T09:42:09.195Z,85.46
2022-11-16T09:43:09.180Z,85.48
2022-11-16T09:44:09.179Z,85.50
2022-11-16T09:45:09.146Z,85.53
2022-11-16T09:46:09.165Z,85.52
2022-11-16T09:47:09.185Z,85.55
2022-11-16T09:48:09.146Z,85.52
2022-11-16T09:49:17.158Z,85.48
2022-11-16T09:50:09.110Z,85.41
2022-11-16T09:51:09.084Z,85.31
2022-11-16T09:52:09.073Z,85.31
2022-11-16T09:53:09.067Z,85.41
2022-11-16T09:54:09.048Z,85.48
2022-11-16T09:55:13.372Z,85.31
2022-11-16T09:56:09.061Z,85.28
2022-11-16T09:57:12.362Z,85.29
2022-11-16T09:58:09.003Z,85.30
2022-11-16T09:59:13.522Z,85.30
2022-11-16T10:00:08.973Z,85.17
2022-11-16T10:01:09.110Z,85.10
2022-11-16T10:02:08.940Z,85.11
2022-11-16T10:03:08.928Z,85.16
2022-11-16T10:04:08.916Z,85.17
2022-11-16T10:05:08.919Z,85.14
2022-11-16T10:06:09.000Z,85.10
2022-11-16T10:07:08.946Z,85.14
2022-11-16T10:08:08.999Z,85.11
2022-11-16T10:09:08.849Z,85.12
2022-11-16T10:10:09.589Z,85.01
2022-11-16T10:11:08.834Z,84.94
2022-11-16T10:12:08.821Z,84.74
2022-11-16T10:13:08.826Z,84.59
2022-11-16T10:14:08.813Z,84.60
2022-11-16T10:15:08.796Z,84.64
2022-11-16T10:16:08.795Z,84.58
2022-11-16T10:17:08.766Z,84.59
2022-11-16T10:18:08.799Z,84.64
2022-11-16T10:19:08.724Z,84.22
2022-11-16T10:20:08.764Z,84.22
2022-11-16T10:21:08.727Z,84.01
2022-11-16T10:22:08.722Z,83.97
2022-11-16T10:23:08.704Z,84.07
2022-11-16T10:24:08.683Z,83.97
2022-11-16T10:25:08.670Z,83.93
2022-11-16T10:26:08.681Z,83.93
2022-11-16T10:27:08.628Z,83.97
2022-11-16T10:28:08.647Z,84.05
2022-11-16T10:29:08.602Z,84.03
2022-11-16T10:30:08.595Z,83.91
2022-11-16T10:31:08.725Z,83.93
2022-11-16T10:32:08.592Z,84.01
2022-11-16T10:33:11.260Z,84.09
2022-11-16T10:34:08.575Z,84.16
2022-11-16T10:35:08.542Z,84.10
2022-11-16T10:36:08.559Z,84.19
2022-11-16T10:37:08.523Z,84.18
2022-11-16T10:38:08.506Z,84.16
2022-11-16T10:39:08.479Z,84.21
2022-11-16T10:40:08.492Z,84.17
2022-11-16T10:41:08.475Z,84.21
2022-11-16T10:42:08.444Z,84.16
2022-11-16T10:43:08.466Z,84.18
2022-11-16T10:44:08.430Z,84.25
2022-11-16T10:45:08.408Z,84.15
2022-11-16T10:46:08.397Z,84.12
2022-11-16T10:47:08.380Z,84.23
2022-11-16T10:48:08.391Z,84.34
2022-11-16T10:49:08.382Z,84.07
2022-11-16T10:50:08.343Z,83.87
2022-11-16T10:51:08.340Z,83.87
2022-11-16T10:52:08.317Z,83.99
2022-11-16T10:53:08.313Z,83.89
2022-11-16T10:54:08.335Z,83.83
2022-11-16T10:55:08.288Z,83.70
2022-11-16T10:56:08.293Z,83.72
2022-11-16T10:57:08.270Z,83.92
2022-11-16T10:58:08.258Z,83.93
2022-11-16T10:59:08.239Z,83.99
2022-11-16T11:00:12.602Z,84.11
2022-11-16T11:01:08.297Z,84.02
2022-11-16T11:02:08.192Z,83.76
2022-11-16T11:03:08.212Z,83.80
2022-11-16T11:04:08.172Z,83.85
2022-11-16T11:05:08.182Z,83.84
2022-11-16T11:06:08.145Z,83.86
2022-11-16T11:07:08.211Z,83.87
2022-11-16T11:08:08.118Z,83.88
2022-11-16T11:09:08.132Z,83.87
2022-11-16T11:10:08.109Z,83.91
2022-11-16T11:11:08.091Z,83.92
2022-11-16T11:12:08.103Z,83.87
2022-11-16T11:13:08.072Z,83.83
2022-11-16T11:14:08.077Z,83.52
2022-11-16T11:15:08.043Z,83.47
2022-11-16T11:16:08.027Z,83.43
2022-11-16T11:17:08.025Z,83.54
2022-11-16T11:18:08.059Z,83.57
2022-11-16T11:19:07.983Z,83.38
2022-11-16T11:20:07.984Z,83.45
2022-11-16T11:21:07.993Z,83.52
2022-11-16T11:22:07.957Z,83.27
2022-11-16T11:23:07.971Z,83.25
2022-11-16T11:24:42.239Z,83.30
2022-11-16T11:25:07.921Z,83.51
2022-11-16T11:26:07.893Z,83.29
2022-11-16T11:27:07.899Z,83.32
2022-11-16T11:28:07.888Z,83.35
2022-11-16T11:29:07.892Z,83.36
2022-11-16T11:30:07.855Z,83.25
2022-11-16T11:31:07.861Z,83.15
2022-11-16T11:32:07.842Z,83.14
2022-11-16T11:33:07.819Z,83.11
2022-11-16T11:34:07.806Z,83.08
2022-11-16T11:35:07.791Z,83.08
2022-11-16T11:36:07.789Z,82.75
2022-11-16T11:37:07.783Z,82.80
2022-11-16T11:38:08.558Z,82.88
2022-11-16T11:39:07.840Z,82.88
2022-11-16T11:40:07.715Z,82.68
2022-11-16T11:41:07.717Z,82.72
2022-11-16T11:42:07.692Z,82.40
2022-11-16T11:43:07.725Z,82.51
2022-11-16T11:44:07.686Z,82.32
2022-11-16T11:45:07.676Z,82.18
2022-11-16T11:46:07.672Z,82.00
2022-11-16T11:48:07.639Z,82.39
2022-11-16T11:49:07.613Z,82.53
2022-11-16T11:50:07.616Z,82.59
2022-11-16T11:51:07.593Z,82.47
2022-11-16T11:52:07.611Z,82.31
2022-11-16T11:53:07.584Z,82.24
2022-11-16T11:54:07.540Z,82.24
2022-11-16T11:55:07.556Z,82.43
2022-11-16T11:56:07.544Z,82.29
2022-11-16T11:57:07.553Z,81.89
2022-11-16T11:58:07.510Z,81.83
2022-11-16T11:59:07.534Z,82.18
2022-11-16T12:00:07.469Z,82.27
2022-11-16T12:01:07.461Z,82.29
2022-11-16T12:02:07.484Z,82.33
2022-11-16T12:03:07.456Z,82.35
2022-11-16T12:04:07.431Z,82.09
2022-11-16T12:05:07.405Z,81.91
2022-11-16T12:06:07.420Z,81.82
2022-11-16T12:07:07.506Z,81.80
2022-11-16T12:08:07.395Z,81.87
2022-11-16T12:09:07.371Z,81.84
2022-11-16T12:10:07.371Z,81.91
2022-11-16T12:11:07.369Z,82.03
2022-11-16T12:12:11.819Z,81.89
2022-11-16T12:13:07.355Z,81.60
2022-11-16T12:14:07.318Z,81.44
2022-11-16T12:15:07.282Z,81.42
2022-11-16T12:16:07.263Z,81.40
2022-11-16T12:17:07.300Z,81.42
2022-11-16T12:18:07.274Z,81.24
2022-11-16T12:19:07.249Z,81.22
2022-11-16T12:20:07.226Z,81.20
2022-11-16T12:21:07.205Z,81.11
2022-11-16T12:22:07.197Z,81.18
2022-11-16T12:23:07.209Z,81.04
2022-11-16T12:24:07.176Z,81.20
2022-11-16T12:25:07.197Z,80.78
2022-11-16T12:26:07.136Z,80.47
2022-11-16T12:27:07.124Z,80.60
2022-11-16T12:28:07.112Z,80.57
2022-11-16T12:29:07.126Z,80.73
2022-11-16T12:30:07.098Z,80.86
2022-11-16T12:31:07.115Z,80.43
2022-11-16T12:32:07.057Z,80.22
2022-11-16T12:33:07.080Z,80.21
2022-11-16T12:34:07.076Z,80.45
2022-11-16T12:35:07.027Z,80.35
2022-11-16T12:36:07.034Z,80.23
2022-11-16T12:37:07.008Z,80.20
2022-11-16T12:38:06.981Z,79.99
2022-11-16T12:39:07.050Z,79.84
2022-11-16T12:40:06.966Z,79.83
2022-11-16T12:41:06.978Z,79.63
2022-11-16T12:42:06.976Z,79.93
2022-11-16T12:43:06.940Z,80.24
2022-11-16T12:44:06.912Z,80.08
2022-11-16T12:45:06.900Z,79.98
2022-11-16T12:46:06.921Z,79.89
2022-11-16T12:47:06.890Z,80.11
2022-11-16T12:48:06.883Z,80.06
2022-11-16T12:49:06.879Z,79.78
2022-11-16T12:50:06.836Z,79.57
2022-11-16T12:51:06.841Z,79.50
2022-11-16T12:52:06.843Z,79.62
2022-11-16T12:53:06.826Z,79.73
2022-11-16T12:54:06.803Z,79.58
2022-11-16T12:56:06.806Z,79.27
2022-11-16T12:57:06.748Z,79.21
2022-11-16T12:58:06.763Z,79.17
2022-11-16T12:59:06.787Z,79.10
2022-11-16T13:00:06.753Z,79.06
2022-11-16T13:01:06.767Z,78.93
2022-11-16T13:02:06.707Z,79.15
2022-11-16T13:03:06.688Z,79.21
2022-11-16T13:04:06.661Z,79.18
2022-11-16T13:05:06.680Z,79.18
2022-11-16T13:06:06.660Z,78.20
2022-11-16T13:07:10.900Z,77.99
2022-11-16T13:08:06.640Z,77.23
2022-11-16T13:09:06.635Z,76.58
2022-11-16T13:10:06.615Z,76.53
2022-11-16T13:11:06.587Z,76.38
2022-11-16T13:12:06.577Z,75.47
2022-11-16T13:13:34.870Z,74.09
2022-11-16T13:14:06.537Z,73.45
2022-11-16T13:15:06.548Z,72.09
2022-11-16T13:16:06.523Z,72.15
2022-11-16T13:17:06.531Z,70.72
2022-11-16T13:18:06.476Z,70.53
2022-11-16T13:19:06.464Z,70.38
2022-11-16T13:20:11.634Z,70.25
2022-11-16T13:21:06.464Z,68.22
2022-11-16T13:22:06.455Z,67.48
2022-11-16T13:23:06.435Z,67.62
2022-11-16T13:24:06.400Z,67.30
2022-11-16T13:25:06.384Z,67.37
2022-11-16T13:26:06.402Z,67.42
2022-11-16T13:27:06.383Z,67.33
2022-11-16T13:28:06.339Z,67.47
2022-11-16T13:29:06.361Z,67.89
2022-11-16T13:30:06.361Z,67.45
2022-11-16T13:31:06.302Z,66.08
2022-11-16T13:32:06.295Z,65.44
2022-11-16T13:33:06.328Z,64.81
2022-11-16T13:34:06.262Z,64.40
2022-11-16T13:35:06.287Z,64.64
2022-11-16T13:36:06.234Z,65.27
2022-11-16T13:37:06.221Z,64.49
2022-11-16T13:38:06.242Z,63.96
2022-11-16T13:39:06.222Z,64.28
2022-11-16T13:40:06.187Z,64.43
2022-11-16T13:41:06.196Z,64.68
2022-11-16T13:42:06.219Z,65.21
2022-11-16T13:43:06.148Z,65.61
2022-11-16T13:44:06.163Z,65.55
2022-11-16T13:45:06.129Z,64.68
2022-11-16T13:46:06.319Z,65.29
2022-11-16T13:47:06.102Z,64.77
2022-11-16T13:48:06.104Z,64.99
2022-11-16T13:49:06.091Z,65.28
2022-11-16T13:50:06.060Z,65.92
2022-11-16T13:51:06.052Z,66.37
2022-11-16T13:52:22.482Z,66.88
2022-11-16T13:53:57.724Z,67.32
2022-11-16T13:55:05.990Z,67.79
2022-11-16T13:56:05.993Z,67.77
2022-11-16T13:57:05.974Z,67.74
2022-11-16T13:58:05.949Z,66.96
2022-11-16T13:59:05.971Z,67.33
2022-11-16T14:00:05.926Z,67.74
2022-11-16T14:01:05.970Z,66.99
2022-11-16T14:02:05.916Z,66.89
2022-11-16T14:03:05.882Z,67.74
2022-11-16T14:04:05.861Z,68.44
2022-11-16T14:05:05.849Z,68.58
2022-11-16T14:06:05.867Z,68.87
2022-11-16T14:07:05.885Z,68.06
2022-11-16T14:08:05.807Z,68.30
2022-11-16T14:09:05.797Z,68.24
2022-11-16T14:10:05.855Z,68.48
2022-11-16T14:11:05.801Z,68.67
2022-11-16T14:12:05.760Z,68.61
2022-11-16T14:13:05.757Z,69.23
2022-11-16T14:14:05.823Z,69.71
2022-11-16T14:15:05.718Z,69.42
2022-11-16T14:16:05.710Z,69.48
2022-11-16T14:17:05.691Z,69.69
2022-11-16T14:18:05.684Z,69.42
2022-11-16T14:19:05.721Z,69.60
2022-11-16T14:20:05.672Z,70.06
2022-11-16T14:21:05.668Z,69.99
2022-11-16T14:22:05.604Z,69.79
2022-11-16T14:23:05.613Z,69.61
2022-11-16T14:24:05.600Z,68.87
2022-11-16T14:25:05.598Z,68.65
2022-11-16T14:26:05.587Z,69.30
2022-11-16T14:27:05.557Z,69.05
2022-11-16T14:28:05.555Z,69.01
2022-11-16T14:29:05.525Z,69.22
2022-11-16T14:30:05.502Z,69.00
2022-11-16T14:31:05.483Z,68.53
2022-11-16T14:32:05.481Z,68.42
2022-11-16T14:33:05.471Z,68.45
2022-11-16T14:34:05.474Z,68.43
2022-11-16T14:35:05.431Z,68.65
2022-11-16T14:36:05.423Z,68.71
2022-11-16T14:37:05.442Z,68.55
2022-11-16T14:38:05.417Z,68.84
2022-11-16T14:39:05.408Z,69.51
2022-11-16T14:40:05.417Z,69.13
2022-11-16T14:41:05.350Z,69.73
2022-11-16T14:42:05.339Z,70.07
2022-11-16T14:43:20.700Z,70.13
2022-11-16T14:44:05.381Z,70.51
2022-11-16T14:45:05.312Z,70.62
2022-11-16T14:46:05.288Z,70.49
2022-11-16T14:47:05.272Z,70.40
2022-11-16T14:48:05.319Z,70.59
2022-11-16T14:49:05.242Z,70.47
2022-11-16T14:50:05.229Z,70.70
2022-11-16T14:51:05.227Z,71.03
2022-11-16T14:52:05.204Z,71.00
2022-11-16T14:53:05.185Z,70.70
2022-11-16T14:54:05.185Z,70.62
2022-11-16T14:55:05.164Z,70.28
2022-11-16T14:56:05.151Z,70.57
2022-11-16T14:57:05.161Z,70.51
2022-11-16T14:58:05.121Z,70.71
2022-11-16T14:59:05.126Z,70.97
2022-11-16T15:00:05.130Z,70.96
2022-11-16T15:01:05.094Z,70.68
2022-11-16T15:02:05.095Z,70.56
2022-11-16T15:03:05.124Z,70.60
2022-11-16T15:04:05.057Z,70.36
2022-11-16T15:05:05.052Z,70.37
2022-11-16T15:06:05.091Z,70.47
2022-11-16T15:07:05.229Z,70.50
2022-11-16T15:08:05.000Z,70.65
2022-11-16T15:09:04.970Z,71.02
2022-11-16T15:10:04.964Z,71.28
2022-11-16T15:11:05.016Z,71.50
2022-11-16T15:12:04.944Z,71.36
2022-11-16T15:13:04.952Z,71.25
2022-11-16T15:14:04.959Z,71.43
2022-11-16T15:15:04.899Z,71.42
2022-11-16T15:16:04.887Z,71.33
2022-11-16T15:17:04.938Z,71.24
2022-11-16T15:18:04.850Z,71.40
2022-11-16T15:19:04.839Z,71.43
2022-11-16T15:20:04.850Z,71.61
2022-11-16T15:21:04.846Z,71.65
2022-11-16T15:22:04.834Z,71.54
2022-11-16T15:23:04.789Z,71.38
2022-11-16T15:25:04.763Z,71.84
2022-11-16T15:26:04.804Z,71.98
2022-11-16T15:27:04.753Z,72.07
2022-11-16T15:28:04.743Z,72.40
2022-11-16T15:29:04.723Z,72.68
2022-11-16T15:30:04.693Z,72.76
2022-11-16T15:31:04.682Z,72.88
2022-11-16T15:32:04.673Z,73.28
2022-11-16T15:33:04.655Z,73.72
2022-11-16T15:34:04.693Z,73.53
2022-11-16T15:35:05.591Z,73.70
2022-11-16T15:36:04.658Z,73.42
2022-11-16T15:37:04.605Z,73.57
2022-11-16T15:38:04.578Z,73.73
2022-11-16T15:39:04.557Z,74.05
2022-11-16T15:40:04.557Z,74.18
2022-11-16T15:41:04.563Z,74.55
2022-11-16T15:42:04.589Z,74.67
2022-11-16T15:43:04.517Z,74.47
2022-11-16T15:44:19.152Z,74.47
2022-11-16T15:45:04.512Z,74.20
2022-11-16T15:46:04.480Z,73.96
2022-11-16T15:47:04.464Z,73.76
2022-11-16T15:48:04.439Z,73.76
2022-11-16T15:49:04.436Z,74.16
2022-11-16T15:50:04.452Z,74.14
2022-11-16T15:51:05.174Z,74.17
2022-11-16T15:52:04.453Z,74.29
2022-11-16T15:53:04.408Z,74.40
2022-11-16T15:54:04.363Z,74.37
2022-11-16T15:55:04.377Z,74.27
2022-11-16T15:56:04.496Z,74.65
2022-11-16T15:57:04.310Z,74.61
2022-11-16T15:58:04.309Z,74.36
2022-11-16T15:59:04.302Z,74.37
2022-11-16T16:00:04.360Z,74.37
2022-11-16T16:01:04.354Z,74.49
2022-11-16T16:02:04.260Z,74.44
2022-11-16T16:03:04.247Z,74.55
2022-11-16T16:04:04.232Z,74.55
2022-11-16T16:05:04.246Z,74.86
2022-11-16T16:06:04.199Z,75.10
2022-11-16T16:07:04.223Z,75.03
2022-11-16T16:08:04.208Z,75.12
2022-11-16T16:09:10.340Z,75.23
2022-11-16T16:10:04.172Z,75.32
2022-11-16T16:11:04.125Z,75.31
2022-11-16T16:12:04.160Z,75.34
2022-11-16T16:13:04.202Z,75.48
2022-11-16T16:14:04.111Z,75.59
2022-11-16T16:15:04.102Z,75.44
2022-11-16T16:16:04.077Z,75.54
2022-11-16T16:17:04.058Z,75.74
2022-11-16T16:18:04.055Z,75.73
2022-11-16T16:19:09.501Z,75.78
2022-11-16T16:20:04.064Z,75.87
2022-11-16T16:21:04.005Z,75.86
2022-11-16T16:22:03.981Z,76.02
2022-11-16T16:23:04.031Z,76.12
2022-11-16T16:24:03.982Z,76.25
2022-11-16T16:25:03.968Z,76.34
2022-11-16T16:26:03.941Z,76.30
2022-11-16T16:27:03.931Z,76.53
2022-11-16T16:28:03.969Z,76.34
2022-11-16T16:29:03.907Z,76.50
2022-11-16T16:30:03.966Z,76.63
2022-11-16T16:31:03.873Z,76.58
2022-11-16T16:32:03.860Z,76.69
2022-11-16T16:33:03.840Z,76.75
2022-11-16T16:34:03.826Z,76.71
2022-11-16T16:35:03.815Z,76.69
2022-11-16T16:36:03.813Z,76.99
2022-11-16T16:37:03.803Z,76.87
2022-11-16T16:38:03.792Z,76.89
2022-11-16T16:39:03.768Z,77.15
2022-11-16T16:40:03.750Z,77.19
2022-11-16T16:41:03.754Z,77.09
2022-11-16T16:42:03.724Z,77.12
2022-11-16T16:43:03.744Z,77.15
2022-11-16T16:44:03.704Z,77.08
2022-11-16T16:45:03.715Z,77.16
2022-11-16T16:46:03.675Z,77.24
2022-11-16T16:47:03.666Z,77.28
2022-11-16T16:48:03.884Z,77.28
2022-11-16T16:49:03.648Z,77.28
2022-11-16T16:50:03.613Z,77.54
2022-11-16T16:51:03.590Z,77.41
2022-11-16T16:52:03.580Z,77.52
2022-11-16T16:53:03.818Z,77.30
2022-11-16T16:54:03.565Z,77.36
2022-11-16T16:55:03.606Z,77.38
2022-11-16T16:56:03.535Z,77.56
2022-11-16T16:57:03.567Z,77.48
2022-11-16T16:58:03.515Z,77.58
2022-11-16T16:59:03.498Z,77.80
2022-11-16T17:00:03.518Z,77.87
2022-11-16T17:01:03.489Z,77.88
2022-11-16T17:02:03.453Z,77.99
2022-11-16T17:03:03.437Z,78.00
2022-11-16T17:04:03.450Z,78.11
2022-11-16T17:05:03.432Z,78.19
2022-11-16T17:06:03.400Z,78.07
2022-11-16T17:07:03.408Z,78.08
2022-11-16T17:08:03.384Z,78.20
2022-11-16T17:09:03.359Z,78.11
2022-11-16T17:10:03.384Z,78.28
2022-11-16T17:11:03.353Z,78.09
2022-11-16T17:12:03.349Z,78.14
2022-11-16T17:13:03.341Z,77.95
2022-11-16T17:14:03.307Z,77.89
2022-11-16T17:15:03.279Z,77.66
2022-11-16T17:16:03.299Z,77.89
2022-11-16T17:17:03.274Z,78.02
2022-11-16T17:18:03.254Z,78.04
2022-11-16T17:19:03.236Z,78.23
2022-11-16T17:20:03.245Z,78.24
2022-11-16T17:21:03.203Z,78.34
2022-11-16T17:22:03.190Z,78.52
2022-11-16T17:23:03.186Z,78.57
2022-11-16T17:24:03.194Z,78.57
2022-11-16T17:25:03.157Z,78.59
2022-11-16T17:26:03.162Z,78.56
2022-11-16T17:27:03.123Z,78.46
2022-11-16T17:28:03.115Z,78.15
2022-11-16T17:29:03.126Z,77.97
2022-11-16T17:30:03.097Z,78.09
2022-11-16T17:31:03.069Z,78.33
2022-11-16T17:32:03.064Z,78.14
2022-11-16T17:33:03.044Z,78.33
2022-11-16T17:34:03.069Z,78.42
2022-11-16T17:35:03.050Z,78.47
2022-11-16T17:36:03.015Z,78.36
2022-11-16T17:37:02.999Z,78.44
2022-11-16T17:38:02.986Z,78.40
2022-11-16T17:39:02.971Z,78.31
2022-11-16T17:40:02.963Z,78.53
2022-11-16T17:41:02.956Z,78.62
2022-11-16T17:42:02.945Z,78.57
2022-11-16T17:43:03.021Z,78.40
2022-11-16T17:44:02.926Z,77.99
2022-11-16T17:45:02.896Z,77.87
2022-11-16T17:46:02.880Z,78.12
2022-11-16T17:47:02.906Z,78.08
2022-11-16T17:48:02.860Z,77.91
2022-11-16T17:49:02.840Z,77.20
2022-11-16T17:50:02.852Z,76.75
2022-11-16T17:51:02.832Z,76.73
2022-11-16T17:52:02.813Z,77.01
2022-11-16T17:53:02.793Z,77.45
2022-11-16T17:54:02.791Z,77.88
2022-11-16T17:55:02.778Z,78.30
2022-11-16T17:56:02.766Z,78.71
2022-11-16T17:57:02.751Z,78.88
2022-11-16T17:58:02.762Z,78.84
2022-11-16T17:59:02.741Z,78.83
2022-11-16T18:00:02.710Z,78.85
2022-11-16T18:01:02.773Z,78.80
2022-11-16T18:02:02.701Z,78.17
2022-11-16T18:03:02.720Z,77.60
2022-11-16T18:04:02.664Z,77.83
2022-11-16T18:05:02.643Z,77.61
2022-11-16T18:06:02.689Z,77.75
2022-11-16T18:07:02.654Z,77.83
2022-11-16T18:08:02.607Z,78.43
2022-11-16T18:09:02.600Z,78.72
2022-11-16T18:10:02.591Z,78.65
2022-11-16T18:11:02.564Z,78.36
2022-11-16T18:12:02.558Z,78.43
2022-11-16T18:13:02.565Z,78.29
2022-11-16T18:14:02.556Z,78.62
2022-11-16T18:15:29.365Z,78.97
2022-11-16T18:16:02.514Z,79.25
2022-11-16T18:17:02.493Z,79.15
2022-11-16T18:18:02.489Z,79.12
2022-11-16T18:19:02.479Z,79.28
2022-11-16T18:20:02.494Z,79.23
2022-11-16T18:21:02.468Z,79.25
2022-11-16T18:22:02.466Z,79.13
2022-11-16T18:23:02.429Z,78.84